sensor_id;sensor_type;location;lat;lon;timestamp;P1;durP1;ratioP1;P2;durP2;ratioP2
77612;SDS011;66777;52.282;5.960;2023-02-03T00:00:23;10.30;;;3.55;;
77612;SDS011;66777;52.282;5.960;2023-02-03T00:02:48;14.32;;;4.13;;
77612;SDS011;66777;52.282;5.960;2023-02-03T00:05:14;11.63;;;3.90;;
77612;SDS011;66777;52.282;5.960;2023-02-03T00:07:40;11.43;;;4.32;;
77612;SDS011;66777;52.282;5.960;2023-02-03T00:10:06;18.40;;;5.00;;
77612;SDS011;66777;52.282;5.960;2023-02-03T00:12:32;13.27;;;4.57;;
77612;SDS011;66777;52.282;5.960;2023-02-03T00:14:58;11.93;;;4.88;;
77612;SDS011;66777;52.282;5.960;2023-02-03T00:17:24;15.70;;;4.78;;
77612;SDS011;66777;52.282;5.960;2023-02-03T00:19:50;15.80;;;4.22;;
77612;SDS011;66777;52.282;5.960;2023-02-03T00:22:15;17.75;;;4.80;;
77612;SDS011;66777;52.282;5.960;2023-02-03T00:24:41;12.73;;;3.58;;
77612;SDS011;66777;52.282;5.960;2023-02-03T00:27:07;12.38;;;4.60;;
77612;SDS011;66777;52.282;5.960;2023-02-03T00:29:33;12.50;;;4.28;;
77612;SDS011;66777;52.282;5.960;2023-02-03T00:31:58;12.32;;;4.47;;
77612;SDS011;66777;52.282;5.960;2023-02-03T00:34:27;8.20;;;4.22;;
77612;SDS011;66777;52.282;5.960;2023-02-03T00:36:54;12.35;;;4.35;;
77612;SDS011;66777;52.282;5.960;2023-02-03T00:39:20;12.70;;;5.00;;
77612;SDS011;66777;52.282;5.960;2023-02-03T00:41:46;17.23;;;4.35;;
77612;SDS011;66777;52.282;5.960;2023-02-03T00:44:12;10.90;;;4.40;;
77612;SDS011;66777;52.282;5.960;2023-02-03T00:46:38;12.05;;;3.40;;
77612;SDS011;66777;52.282;5.960;2023-02-03T00:49:04;11.75;;;4.10;;
77612;SDS011;66777;52.282;5.960;2023-02-03T00:51:30;11.35;;;3.75;;
77612;SDS011;66777;52.282;5.960;2023-02-03T00:53:56;13.55;;;3.95;;
77612;SDS011;66777;52.282;5.960;2023-02-03T00:56:22;15.73;;;3.83;;
77612;SDS011;66777;52.282;5.960;2023-02-03T00:58:47;12.10;;;4.00;;
77612;SDS011;66777;52.282;5.960;2023-02-03T01:01:13;11.45;;;5.07;;
77612;SDS011;66777;52.282;5.960;2023-02-03T01:03:39;14.30;;;3.67;;
77612;SDS011;66777;52.282;5.960;2023-02-03T01:06:13;11.95;;;3.63;;
77612;SDS011;66777;52.282;5.960;2023-02-03T01:11:08;12.23;;;3.92;;
77612;SDS011;66777;52.282;5.960;2023-02-03T01:13:34;13.57;;;4.65;;
77612;SDS011;66777;52.282;5.960;2023-02-03T01:16:00;11.38;;;4.03;;
77612;SDS011;66777;52.282;5.960;2023-02-03T01:18:26;14.88;;;3.55;;
77612;SDS011;66777;52.282;5.960;2023-02-03T01:20:52;8.20;;;3.35;;
77612;SDS011;66777;52.282;5.960;2023-02-03T01:23:18;10.00;;;3.65;;
77612;SDS011;66777;52.282;5.960;2023-02-03T01:25:44;9.80;;;2.58;;
77612;SDS011;66777;52.282;5.960;2023-02-03T01:28:09;11.80;;;3.67;;
77612;SDS011;66777;52.282;5.960;2023-02-03T01:30:35;9.98;;;2.80;;
77612;SDS011;66777;52.282;5.960;2023-02-03T01:33:01;9.43;;;3.35;;
77612;SDS011;66777;52.282;5.960;2023-02-03T01:35:26;13.27;;;3.40;;
77612;SDS011;66777;52.282;5.960;2023-02-03T01:37:52;10.75;;;2.67;;
77612;SDS011;66777;52.282;5.960;2023-02-03T01:40:18;9.98;;;2.85;;
77612;SDS011;66777;52.282;5.960;2023-02-03T01:42:43;6.40;;;2.40;;
77612;SDS011;66777;52.282;5.960;2023-02-03T01:45:09;8.80;;;2.78;;
77612;SDS011;66777;52.282;5.960;2023-02-03T01:47:45;9.02;;;2.30;;
77612;SDS011;66777;52.282;5.960;2023-02-03T01:52:49;8.73;;;2.38;;
77612;SDS011;66777;52.282;5.960;2023-02-03T01:55:19;10.38;;;2.60;;
77612;SDS011;66777;52.282;5.960;2023-02-03T01:57:53;13.52;;;2.45;;
77612;SDS011;66777;52.282;5.960;2023-02-03T02:00:22;11.40;;;2.10;;
77612;SDS011;66777;52.282;5.960;2023-02-03T02:02:48;11.50;;;2.70;;
77612;SDS011;66777;52.282;5.960;2023-02-03T02:08:03;10.20;;;2.30;;
77612;SDS011;66777;52.282;5.960;2023-02-03T02:10:30;12.02;;;2.13;;
77612;SDS011;66777;52.282;5.960;2023-02-03T02:12:57;6.13;;;1.98;;
77612;SDS011;66777;52.282;5.960;2023-02-03T02:15:38;7.18;;;2.05;;
77612;SDS011;66777;52.282;5.960;2023-02-03T02:26:52;10.60;;;3.40;;
77612;SDS011;66777;52.282;5.960;2023-02-03T02:29:46;5.75;;;1.73;;
77612;SDS011;66777;52.282;5.960;2023-02-03T02:43:28;10.70;;;2.28;;
77612;SDS011;66777;52.282;5.960;2023-02-03T02:51:19;9.10;;;1.90;;
77612;SDS011;66777;52.282;5.960;2023-02-03T02:53:48;5.72;;;1.42;;
77612;SDS011;66777;52.282;5.960;2023-02-03T02:56:18;7.45;;;1.77;;
77612;SDS011;66777;52.282;5.960;2023-02-03T02:58:45;8.70;;;1.50;;
77612;SDS011;66777;52.282;5.960;2023-02-03T03:01:14;11.88;;;2.20;;
77612;SDS011;66777;52.282;5.960;2023-02-03T03:03:40;7.38;;;1.65;;
77612;SDS011;66777;52.282;5.960;2023-02-03T03:06:13;8.63;;;1.67;;
77612;SDS011;66777;52.282;5.960;2023-02-03T03:08:52;8.25;;;1.67;;
77612;SDS011;66777;52.282;5.960;2023-02-03T03:11:26;6.07;;;1.75;;
77612;SDS011;66777;52.282;5.960;2023-02-03T03:13:55;5.72;;;1.85;;
77612;SDS011;66777;52.282;5.960;2023-02-03T03:16:22;9.90;;;1.98;;
77612;SDS011;66777;52.282;5.960;2023-02-03T03:18:52;5.50;;;1.52;;
77612;SDS011;66777;52.282;5.960;2023-02-03T03:23:50;4.80;;;1.48;;
77612;SDS011;66777;52.282;5.960;2023-02-03T03:26:27;5.80;;;1.40;;
77612;SDS011;66777;52.282;5.960;2023-02-03T03:31:49;5.38;;;1.63;;
77612;SDS011;66777;52.282;5.960;2023-02-03T03:34:15;6.00;;;1.85;;
77612;SDS011;66777;52.282;5.960;2023-02-03T03:45:13;5.68;;;1.65;;
77612;SDS011;66777;52.282;5.960;2023-02-03T03:50:27;6.50;;;1.45;;
77612;SDS011;66777;52.282;5.960;2023-02-03T03:52:55;5.78;;;1.50;;
77612;SDS011;66777;52.282;5.960;2023-02-03T03:55:24;7.88;;;2.05;;
77612;SDS011;66777;52.282;5.960;2023-02-03T03:58:00;5.22;;;1.30;;
77612;SDS011;66777;52.282;5.960;2023-02-03T04:00:29;6.40;;;1.52;;
77612;SDS011;66777;52.282;5.960;2023-02-03T04:02:59;6.88;;;1.52;;
77612;SDS011;66777;52.282;5.960;2023-02-03T04:05:28;5.72;;;1.80;;
77612;SDS011;66777;52.282;5.960;2023-02-03T04:07:56;5.90;;;1.40;;
77612;SDS011;66777;52.282;5.960;2023-02-03T04:10:29;8.27;;;1.70;;
77612;SDS011;66777;52.282;5.960;2023-02-03T04:13:00;8.85;;;1.65;;
77612;SDS011;66777;52.282;5.960;2023-02-03T04:15:26;6.13;;;1.30;;
77612;SDS011;66777;52.282;5.960;2023-02-03T04:17:52;4.10;;;1.42;;
77612;SDS011;66777;52.282;5.960;2023-02-03T04:20:19;4.32;;;1.92;;
77612;SDS011;66777;52.282;5.960;2023-02-03T04:22:45;3.63;;;2.00;;
77612;SDS011;66777;52.282;5.960;2023-02-03T04:25:11;9.35;;;1.60;;
77612;SDS011;66777;52.282;5.960;2023-02-03T04:27:37;5.82;;;2.10;;
77612;SDS011;66777;52.282;5.960;2023-02-03T04:30:03;4.03;;;1.50;;
77612;SDS011;66777;52.282;5.960;2023-02-03T04:32:29;4.38;;;1.30;;
77612;SDS011;66777;52.282;5.960;2023-02-03T04:34:55;9.40;;;1.58;;
77612;SDS011;66777;52.282;5.960;2023-02-03T04:37:22;3.05;;;1.20;;
77612;SDS011;66777;52.282;5.960;2023-02-03T04:39:50;6.40;;;1.40;;
77612;SDS011;66777;52.282;5.960;2023-02-03T04:42:17;6.68;;;1.60;;
77612;SDS011;66777;52.282;5.960;2023-02-03T04:44:43;5.28;;;1.40;;
77612;SDS011;66777;52.282;5.960;2023-02-03T04:47:09;8.20;;;1.40;;
77612;SDS011;66777;52.282;5.960;2023-02-03T04:49:35;7.10;;;1.48;;
77612;SDS011;66777;52.282;5.960;2023-02-03T04:52:00;7.65;;;1.33;;
77612;SDS011;66777;52.282;5.960;2023-02-03T04:54:26;6.65;;;1.48;;
77612;SDS011;66777;52.282;5.960;2023-02-03T04:56:52;6.40;;;1.80;;
77612;SDS011;66777;52.282;5.960;2023-02-03T04:59:18;4.65;;;1.27;;
77612;SDS011;66777;52.282;5.960;2023-02-03T05:01:44;5.65;;;1.40;;
77612;SDS011;66777;52.282;5.960;2023-02-03T05:04:09;6.85;;;1.60;;
77612;SDS011;66777;52.282;5.960;2023-02-03T05:06:35;4.60;;;1.42;;
77612;SDS011;66777;52.282;5.960;2023-02-03T05:09:00;5.45;;;1.48;;
77612;SDS011;66777;52.282;5.960;2023-02-03T05:11:26;11.20;;;1.98;;
77612;SDS011;66777;52.282;5.960;2023-02-03T05:13:52;4.43;;;1.23;;
77612;SDS011;66777;52.282;5.960;2023-02-03T05:16:18;4.95;;;1.45;;
77612;SDS011;66777;52.282;5.960;2023-02-03T05:18:44;6.35;;;1.75;;
77612;SDS011;66777;52.282;5.960;2023-02-03T05:21:10;7.47;;;1.65;;
77612;SDS011;66777;52.282;5.960;2023-02-03T05:23:36;8.60;;;1.70;;
77612;SDS011;66777;52.282;5.960;2023-02-03T05:26:02;6.13;;;1.50;;
77612;SDS011;66777;52.282;5.960;2023-02-03T05:28:28;7.60;;;1.50;;
77612;SDS011;66777;52.282;5.960;2023-02-03T05:30:58;8.23;;;2.10;;
77612;SDS011;66777;52.282;5.960;2023-02-03T05:33:25;4.90;;;1.30;;
77612;SDS011;66777;52.282;5.960;2023-02-03T05:35:52;5.75;;;1.48;;
77612;SDS011;66777;52.282;5.960;2023-02-03T05:38:17;5.90;;;1.50;;
77612;SDS011;66777;52.282;5.960;2023-02-03T05:40:43;6.10;;;2.03;;
77612;SDS011;66777;52.282;5.960;2023-02-03T05:43:30;7.40;;;1.65;;
77612;SDS011;66777;52.282;5.960;2023-02-03T05:45:58;10.13;;;2.00;;
77612;SDS011;66777;52.282;5.960;2023-02-03T05:48:25;8.35;;;1.48;;
77612;SDS011;66777;52.282;5.960;2023-02-03T05:50:51;7.35;;;1.73;;
77612;SDS011;66777;52.282;5.960;2023-02-03T05:53:17;5.57;;;1.67;;
77612;SDS011;66777;52.282;5.960;2023-02-03T05:55:43;5.32;;;1.58;;
77612;SDS011;66777;52.282;5.960;2023-02-03T05:58:08;5.00;;;1.40;;
77612;SDS011;66777;52.282;5.960;2023-02-03T06:00:35;6.88;;;1.60;;
77612;SDS011;66777;52.282;5.960;2023-02-03T06:03:01;6.35;;;1.70;;
77612;SDS011;66777;52.282;5.960;2023-02-03T06:05:28;6.57;;;1.80;;
77612;SDS011;66777;52.282;5.960;2023-02-03T06:07:55;7.75;;;1.75;;
77612;SDS011;66777;52.282;5.960;2023-02-03T06:10:21;5.35;;;1.52;;
77612;SDS011;66777;52.282;5.960;2023-02-03T06:12:47;4.65;;;1.30;;
77612;SDS011;66777;52.282;5.960;2023-02-03T06:15:13;6.80;;;1.50;;
77612;SDS011;66777;52.282;5.960;2023-02-03T06:17:42;8.07;;;1.75;;
77612;SDS011;66777;52.282;5.960;2023-02-03T06:20:15;6.93;;;1.63;;
77612;SDS011;66777;52.282;5.960;2023-02-03T06:22:42;5.15;;;1.63;;
77612;SDS011;66777;52.282;5.960;2023-02-03T06:25:08;5.63;;;1.80;;
77612;SDS011;66777;52.282;5.960;2023-02-03T06:27:34;9.20;;;1.77;;
77612;SDS011;66777;52.282;5.960;2023-02-03T06:30:00;8.30;;;1.50;;
77612;SDS011;66777;52.282;5.960;2023-02-03T06:32:27;5.88;;;1.70;;
77612;SDS011;66777;52.282;5.960;2023-02-03T06:34:53;8.43;;;2.20;;
77612;SDS011;66777;52.282;5.960;2023-02-03T06:37:18;12.68;;;1.60;;
77612;SDS011;66777;52.282;5.960;2023-02-03T06:39:44;6.18;;;1.73;;
77612;SDS011;66777;52.282;5.960;2023-02-03T06:42:09;6.43;;;2.33;;
77612;SDS011;66777;52.282;5.960;2023-02-03T06:44:35;5.97;;;1.77;;
77612;SDS011;66777;52.282;5.960;2023-02-03T06:47:01;6.35;;;1.58;;
77612;SDS011;66777;52.282;5.960;2023-02-03T06:49:27;7.15;;;2.05;;
77612;SDS011;66777;52.282;5.960;2023-02-03T06:51:53;6.25;;;1.83;;
77612;SDS011;66777;52.282;5.960;2023-02-03T06:54:19;5.50;;;1.88;;
77612;SDS011;66777;52.282;5.960;2023-02-03T06:56:45;7.07;;;1.77;;
77612;SDS011;66777;52.282;5.960;2023-02-03T06:59:11;8.10;;;2.00;;
77612;SDS011;66777;52.282;5.960;2023-02-03T07:01:37;8.68;;;2.13;;
77612;SDS011;66777;52.282;5.960;2023-02-03T07:04:03;12.95;;;1.98;;
77612;SDS011;66777;52.282;5.960;2023-02-03T07:06:29;9.18;;;1.65;;
77612;SDS011;66777;52.282;5.960;2023-02-03T07:08:57;6.53;;;1.70;;
77612;SDS011;66777;52.282;5.960;2023-02-03T07:11:25;5.65;;;1.77;;
77612;SDS011;66777;52.282;5.960;2023-02-03T07:13:51;8.75;;;1.67;;
77612;SDS011;66777;52.282;5.960;2023-02-03T07:16:17;5.07;;;1.48;;
77612;SDS011;66777;52.282;5.960;2023-02-03T07:18:44;8.18;;;1.13;;
77612;SDS011;66777;52.282;5.960;2023-02-03T07:21:10;7.22;;;1.45;;
77612;SDS011;66777;52.282;5.960;2023-02-03T07:23:36;6.97;;;1.80;;
77612;SDS011;66777;52.282;5.960;2023-02-03T07:26:02;7.97;;;2.03;;
77612;SDS011;66777;52.282;5.960;2023-02-03T07:28:30;5.35;;;1.70;;
77612;SDS011;66777;52.282;5.960;2023-02-03T07:30:59;5.75;;;1.65;;
77612;SDS011;66777;52.282;5.960;2023-02-03T07:33:26;5.07;;;1.45;;
77612;SDS011;66777;52.282;5.960;2023-02-03T07:35:52;13.20;;;2.30;;
77612;SDS011;66777;52.282;5.960;2023-02-03T07:38:19;5.57;;;1.58;;
77612;SDS011;66777;52.282;5.960;2023-02-03T07:40:45;8.80;;;1.73;;
77612;SDS011;66777;52.282;5.960;2023-02-03T07:43:12;7.18;;;1.92;;
77612;SDS011;66777;52.282;5.960;2023-02-03T07:45:38;8.05;;;2.53;;
77612;SDS011;66777;52.282;5.960;2023-02-03T07:48:04;9.95;;;2.17;;
77612;SDS011;66777;52.282;5.960;2023-02-03T07:50:30;5.95;;;1.60;;
77612;SDS011;66777;52.282;5.960;2023-02-03T07:52:57;8.68;;;1.92;;
77612;SDS011;66777;52.282;5.960;2023-02-03T07:55:23;7.95;;;1.85;;
77612;SDS011;66777;52.282;5.960;2023-02-03T07:57:49;5.95;;;1.52;;
77612;SDS011;66777;52.282;5.960;2023-02-03T08:00:17;6.00;;;1.60;;
77612;SDS011;66777;52.282;5.960;2023-02-03T08:02:43;8.30;;;2.00;;
77612;SDS011;66777;52.282;5.960;2023-02-03T08:05:11;7.10;;;1.58;;
77612;SDS011;66777;52.282;5.960;2023-02-03T08:07:39;10.10;;;2.40;;
77612;SDS011;66777;52.282;5.960;2023-02-03T08:10:05;8.23;;;1.75;;
77612;SDS011;66777;52.282;5.960;2023-02-03T08:12:32;6.70;;;1.75;;
77612;SDS011;66777;52.282;5.960;2023-02-03T08:14:58;13.63;;;1.75;;
77612;SDS011;66777;52.282;5.960;2023-02-03T08:17:24;7.53;;;1.73;;
77612;SDS011;66777;52.282;5.960;2023-02-03T08:19:50;8.48;;;1.90;;
77612;SDS011;66777;52.282;5.960;2023-02-03T08:22:15;7.85;;;1.52;;
77612;SDS011;66777;52.282;5.960;2023-02-03T08:24:42;9.63;;;1.58;;
77612;SDS011;66777;52.282;5.960;2023-02-03T08:27:14;5.55;;;1.60;;
77612;SDS011;66777;52.282;5.960;2023-02-03T08:29:41;5.60;;;2.13;;
77612;SDS011;66777;52.282;5.960;2023-02-03T08:32:14;5.80;;;1.83;;
77612;SDS011;66777;52.282;5.960;2023-02-03T08:34:41;6.78;;;1.77;;
77612;SDS011;66777;52.282;5.960;2023-02-03T08:37:08;6.93;;;1.67;;
77612;SDS011;66777;52.282;5.960;2023-02-03T08:39:35;8.02;;;2.17;;
77612;SDS011;66777;52.282;5.960;2023-02-03T08:42:01;9.18;;;2.00;;
77612;SDS011;66777;52.282;5.960;2023-02-03T08:44:29;5.63;;;2.00;;
77612;SDS011;66777;52.282;5.960;2023-02-03T08:46:56;12.70;;;1.95;;
77612;SDS011;66777;52.282;5.960;2023-02-03T08:49:22;4.47;;;1.27;;
77612;SDS011;66777;52.282;5.960;2023-02-03T08:51:50;9.65;;;2.38;;
77612;SDS011;66777;52.282;5.960;2023-02-03T08:54:16;9.20;;;2.25;;
77612;SDS011;66777;52.282;5.960;2023-02-03T08:56:43;8.63;;;2.70;;
77612;SDS011;66777;52.282;5.960;2023-02-03T08:59:09;11.05;;;2.10;;
77612;SDS011;66777;52.282;5.960;2023-02-03T09:01:37;9.10;;;1.83;;
77612;SDS011;66777;52.282;5.960;2023-02-03T09:04:05;5.45;;;1.83;;
77612;SDS011;66777;52.282;5.960;2023-02-03T09:06:33;8.35;;;1.90;;
77612;SDS011;66777;52.282;5.960;2023-02-03T09:09:00;10.30;;;2.17;;
77612;SDS011;66777;52.282;5.960;2023-02-03T09:11:26;9.77;;;2.55;;
77612;SDS011;66777;52.282;5.960;2023-02-03T09:13:53;8.75;;;2.40;;
77612;SDS011;66777;52.282;5.960;2023-02-03T09:16:21;7.65;;;1.92;;
77612;SDS011;66777;52.282;5.960;2023-02-03T09:18:47;6.95;;;1.95;;
77612;SDS011;66777;52.282;5.960;2023-02-03T09:21:13;6.15;;;2.20;;
77612;SDS011;66777;52.282;5.960;2023-02-03T09:23:40;6.60;;;2.05;;
77612;SDS011;66777;52.282;5.960;2023-02-03T09:26:07;8.30;;;1.75;;
77612;SDS011;66777;52.282;5.960;2023-02-03T09:28:34;6.78;;;2.00;;
77612;SDS011;66777;52.282;5.960;2023-02-03T09:31:05;7.28;;;1.90;;
77612;SDS011;66777;52.282;5.960;2023-02-03T09:33:32;7.72;;;2.22;;
77612;SDS011;66777;52.282;5.960;2023-02-03T09:35:58;6.38;;;1.90;;
77612;SDS011;66777;52.282;5.960;2023-02-03T09:38:24;10.52;;;2.50;;
77612;SDS011;66777;52.282;5.960;2023-02-03T09:40:54;8.63;;;2.30;;
77612;SDS011;66777;52.282;5.960;2023-02-03T09:46:28;9.00;;;2.13;;
77612;SDS011;66777;52.282;5.960;2023-02-03T09:49:05;9.55;;;1.95;;
77612;SDS011;66777;52.282;5.960;2023-02-03T09:57:19;6.90;;;2.22;;
77612;SDS011;66777;52.282;5.960;2023-02-03T09:59:45;6.72;;;2.00;;
77612;SDS011;66777;52.282;5.960;2023-02-03T10:02:15;5.75;;;1.92;;
77612;SDS011;66777;52.282;5.960;2023-02-03T10:13:39;7.65;;;1.80;;
77612;SDS011;66777;52.282;5.960;2023-02-03T10:16:26;6.32;;;1.92;;
77612;SDS011;66777;52.282;5.960;2023-02-03T10:19:13;9.05;;;2.58;;
77612;SDS011;66777;52.282;5.960;2023-02-03T10:21:46;7.28;;;1.95;;
77612;SDS011;66777;52.282;5.960;2023-02-03T10:24:21;7.78;;;2.55;;
77612;SDS011;66777;52.282;5.960;2023-02-03T10:27:04;11.63;;;2.60;;
77612;SDS011;66777;52.282;5.960;2023-02-03T10:29:34;6.05;;;2.10;;
77612;SDS011;66777;52.282;5.960;2023-02-03T10:32:07;4.82;;;1.55;;
77612;SDS011;66777;52.282;5.960;2023-02-03T10:34:34;7.05;;;2.08;;
77612;SDS011;66777;52.282;5.960;2023-02-03T10:37:11;8.38;;;2.30;;
77612;SDS011;66777;52.282;5.960;2023-02-03T10:39:59;5.82;;;2.17;;
77612;SDS011;66777;52.282;5.960;2023-02-03T10:42:27;4.32;;;1.73;;
77612;SDS011;66777;52.282;5.960;2023-02-03T10:45:14;6.53;;;2.38;;
77612;SDS011;66777;52.282;5.960;2023-02-03T10:47:41;6.78;;;3.53;;
77612;SDS011;66777;52.282;5.960;2023-02-03T10:52:46;9.65;;;4.03;;
77612;SDS011;66777;52.282;5.960;2023-02-03T10:57:50;5.72;;;2.25;;
77612;SDS011;66777;52.282;5.960;2023-02-03T11:00:21;6.18;;;2.20;;
77612;SDS011;66777;52.282;5.960;2023-02-03T11:03:22;10.75;;;2.90;;
77612;SDS011;66777;52.282;5.960;2023-02-03T11:05:46;8.50;;;2.30;;
77612;SDS011;66777;52.282;5.960;2023-02-03T11:08:14;9.60;;;2.00;;
77612;SDS011;66777;52.282;5.960;2023-02-03T11:10:41;9.35;;;2.40;;
77612;SDS011;66777;52.282;5.960;2023-02-03T11:15:53;9.02;;;2.15;;
77612;SDS011;66777;52.282;5.960;2023-02-03T11:23:48;6.47;;;1.80;;
77612;SDS011;66777;52.282;5.960;2023-02-03T11:26:20;6.68;;;2.00;;
77612;SDS011;66777;52.282;5.960;2023-02-03T11:28:49;8.88;;;2.30;;
77612;SDS011;66777;52.282;5.960;2023-02-03T11:31:28;12.90;;;2.40;;
77612;SDS011;66777;52.282;5.960;2023-02-03T11:34:01;8.98;;;3.03;;
77612;SDS011;66777;52.282;5.960;2023-02-03T11:36:30;8.60;;;2.38;;
77612;SDS011;66777;52.282;5.960;2023-02-03T11:39:19;9.27;;;2.03;;
77612;SDS011;66777;52.282;5.960;2023-02-03T11:41:43;6.68;;;1.60;;
77612;SDS011;66777;52.282;5.960;2023-02-03T11:46:51;6.18;;;2.35;;
77612;SDS011;66777;52.282;5.960;2023-02-03T11:51:54;8.85;;;2.25;;
77612;SDS011;66777;52.282;5.960;2023-02-03T11:54:41;8.35;;;2.65;;
77612;SDS011;66777;52.282;5.960;2023-02-03T11:57:39;9.15;;;2.70;;
77612;SDS011;66777;52.282;5.960;2023-02-03T12:00:30;5.80;;;2.05;;
77612;SDS011;66777;52.282;5.960;2023-02-03T12:03:17;12.00;;;2.35;;
77612;SDS011;66777;52.282;5.960;2023-02-03T12:14:28;9.30;;;1.83;;
77612;SDS011;66777;52.282;5.960;2023-02-03T12:20:23;8.82;;;2.03;;
77612;SDS011;66777;52.282;5.960;2023-02-03T12:25:57;10.18;;;2.38;;
77612;SDS011;66777;52.282;5.960;2023-02-03T12:28:38;6.35;;;2.17;;
77612;SDS011;66777;52.282;5.960;2023-02-03T12:34:20;9.50;;;1.85;;
77612;SDS011;66777;52.282;5.960;2023-02-03T12:37:07;11.82;;;2.38;;
77612;SDS011;66777;52.282;5.960;2023-02-03T12:39:50;10.20;;;2.22;;
77612;SDS011;66777;52.282;5.960;2023-02-03T12:42:18;10.18;;;2.22;;
77612;SDS011;66777;52.282;5.960;2023-02-03T12:44:54;14.20;;;3.03;;
77612;SDS011;66777;52.282;5.960;2023-02-03T12:47:38;11.80;;;2.20;;
77612;SDS011;66777;52.282;5.960;2023-02-03T12:52:46;11.10;;;2.75;;
77612;SDS011;66777;52.282;5.960;2023-02-03T12:57:53;12.45;;;2.38;;
77612;SDS011;66777;52.282;5.960;2023-02-03T13:00:27;9.90;;;2.13;;
77612;SDS011;66777;52.282;5.960;2023-02-03T13:06:10;10.07;;;1.95;;
77612;SDS011;66777;52.282;5.960;2023-02-03T13:11:42;15.18;;;2.85;;
77612;SDS011;66777;52.282;5.960;2023-02-03T13:14:32;10.98;;;1.73;;
77612;SDS011;66777;52.282;5.960;2023-02-03T13:17:12;10.57;;;2.13;;
77612;SDS011;66777;52.282;5.960;2023-02-03T13:19:58;11.05;;;2.30;;
77612;SDS011;66777;52.282;5.960;2023-02-03T13:22:28;14.05;;;2.60;;
77612;SDS011;66777;52.282;5.960;2023-02-03T13:24:57;9.95;;;2.47;;
77612;SDS011;66777;52.282;5.960;2023-02-03T13:27:36;8.40;;;2.22;;
77612;SDS011;66777;52.282;5.960;2023-02-03T13:41:27;16.40;;;2.20;;
77612;SDS011;66777;52.282;5.960;2023-02-03T13:44:01;16.35;;;3.40;;
77612;SDS011;66777;52.282;5.960;2023-02-03T13:46:29;15.35;;;2.30;;
77612;SDS011;66777;52.282;5.960;2023-02-03T13:48:58;13.57;;;2.92;;
77612;SDS011;66777;52.282;5.960;2023-02-03T13:51:28;12.38;;;3.35;;
77612;SDS011;66777;52.282;5.960;2023-02-03T13:54:05;11.15;;;1.95;;
77612;SDS011;66777;52.282;5.960;2023-02-03T13:56:32;16.10;;;2.67;;
77612;SDS011;66777;52.282;5.960;2023-02-03T14:01:41;14.90;;;2.42;;
77612;SDS011;66777;52.282;5.960;2023-02-03T14:04:08;13.60;;;2.60;;
77612;SDS011;66777;52.282;5.960;2023-02-03T14:06:53;11.60;;;2.13;;
77612;SDS011;66777;52.282;5.960;2023-02-03T14:14:40;12.85;;;2.53;;
77612;SDS011;66777;52.282;5.960;2023-02-03T14:17:07;12.05;;;2.88;;
77612;SDS011;66777;52.282;5.960;2023-02-03T14:20:01;12.43;;;2.15;;
77612;SDS011;66777;52.282;5.960;2023-02-03T14:25:13;13.65;;;2.08;;
77612;SDS011;66777;52.282;5.960;2023-02-03T14:27:43;16.75;;;3.03;;
77612;SDS011;66777;52.282;5.960;2023-02-03T14:30:10;17.75;;;2.72;;
77612;SDS011;66777;52.282;5.960;2023-02-03T14:32:57;13.45;;;2.35;;
77612;SDS011;66777;52.282;5.960;2023-02-03T14:35:34;13.07;;;2.50;;
77612;SDS011;66777;52.282;5.960;2023-02-03T14:38:05;12.68;;;2.05;;
77612;SDS011;66777;52.282;5.960;2023-02-03T14:40:43;13.82;;;2.22;;
77612;SDS011;66777;52.282;5.960;2023-02-03T14:54:43;15.88;;;2.63;;
77612;SDS011;66777;52.282;5.960;2023-02-03T15:00:05;16.98;;;3.08;;
77612;SDS011;66777;52.282;5.960;2023-02-03T15:08:04;11.50;;;2.58;;
77612;SDS011;66777;52.282;5.960;2023-02-03T15:10:49;19.17;;;2.70;;
77612;SDS011;66777;52.282;5.960;2023-02-03T15:16:09;13.18;;;2.88;;
77612;SDS011;66777;52.282;5.960;2023-02-03T15:18:39;13.18;;;2.08;;
77612;SDS011;66777;52.282;5.960;2023-02-03T15:21:12;15.18;;;2.33;;
77612;SDS011;66777;52.282;5.960;2023-02-03T15:23:42;14.38;;;2.58;;
77612;SDS011;66777;52.282;5.960;2023-02-03T15:26:16;17.50;;;2.53;;
77612;SDS011;66777;52.282;5.960;2023-02-03T15:28:58;8.10;;;1.98;;
77612;SDS011;66777;52.282;5.960;2023-02-03T15:34:22;15.40;;;2.72;;
77612;SDS011;66777;52.282;5.960;2023-02-03T15:36:56;15.20;;;3.00;;
77612;SDS011;66777;52.282;5.960;2023-02-03T15:39:46;15.48;;;2.30;;
77612;SDS011;66777;52.282;5.960;2023-02-03T15:42:16;13.05;;;2.67;;
77612;SDS011;66777;52.282;5.960;2023-02-03T15:45:04;19.13;;;3.03;;
77612;SDS011;66777;52.282;5.960;2023-02-03T15:47:34;12.88;;;1.73;;
77612;SDS011;66777;52.282;5.960;2023-02-03T15:50:27;10.77;;;2.08;;
77612;SDS011;66777;52.282;5.960;2023-02-03T15:52:51;16.92;;;2.58;;
77612;SDS011;66777;52.282;5.960;2023-02-03T15:55:26;15.10;;;2.67;;
77612;SDS011;66777;52.282;5.960;2023-02-03T15:57:57;16.52;;;2.15;;
77612;SDS011;66777;52.282;5.960;2023-02-03T16:00:31;15.70;;;3.65;;
77612;SDS011;66777;52.282;5.960;2023-02-03T16:03:02;17.23;;;2.78;;
77612;SDS011;66777;52.282;5.960;2023-02-03T16:05:38;15.52;;;2.67;;
77612;SDS011;66777;52.282;5.960;2023-02-03T16:10:58;19.83;;;2.28;;
77612;SDS011;66777;52.282;5.960;2023-02-03T16:13:25;17.35;;;2.55;;
77612;SDS011;66777;52.282;5.960;2023-02-03T16:15:56;19.60;;;2.80;;
77612;SDS011;66777;52.282;5.960;2023-02-03T16:18:39;24.77;;;3.70;;
77612;SDS011;66777;52.282;5.960;2023-02-03T16:29:49;13.60;;;2.75;;
77612;SDS011;66777;52.282;5.960;2023-02-03T16:32:33;19.25;;;2.58;;
77612;SDS011;66777;52.282;5.960;2023-02-03T16:35:18;12.77;;;2.20;;
77612;SDS011;66777;52.282;5.960;2023-02-03T16:38:06;22.05;;;2.83;;
77612;SDS011;66777;52.282;5.960;2023-02-03T16:41:00;10.80;;;2.00;;
77612;SDS011;66777;52.282;5.960;2023-02-03T16:43:46;19.63;;;2.65;;
77612;SDS011;66777;52.282;5.960;2023-02-03T16:46:30;12.93;;;3.67;;
77612;SDS011;66777;52.282;5.960;2023-02-03T16:49:14;10.68;;;2.13;;
77612;SDS011;66777;52.282;5.960;2023-02-03T16:51:59;15.38;;;2.75;;
77612;SDS011;66777;52.282;5.960;2023-02-03T16:54:27;14.95;;;2.80;;
77612;SDS011;66777;52.282;5.960;2023-02-03T16:56:52;15.27;;;2.50;;
77612;SDS011;66777;52.282;5.960;2023-02-03T16:59:20;13.93;;;2.42;;
77612;SDS011;66777;52.282;5.960;2023-02-03T17:01:46;16.85;;;2.80;;
77612;SDS011;66777;52.282;5.960;2023-02-03T17:04:11;17.20;;;3.05;;
77612;SDS011;66777;52.282;5.960;2023-02-03T17:06:37;9.93;;;2.20;;
77612;SDS011;66777;52.282;5.960;2023-02-03T17:09:05;16.23;;;2.58;;
77612;SDS011;66777;52.282;5.960;2023-02-03T17:11:31;15.43;;;3.25;;
77612;SDS011;66777;52.282;5.960;2023-02-03T17:13:57;11.85;;;2.33;;
77612;SDS011;66777;52.282;5.960;2023-02-03T17:16:24;17.17;;;3.88;;
77612;SDS011;66777;52.282;5.960;2023-02-03T17:18:50;11.77;;;2.30;;
77612;SDS011;66777;52.282;5.960;2023-02-03T17:21:18;16.33;;;3.83;;
77612;SDS011;66777;52.282;5.960;2023-02-03T17:23:53;16.20;;;3.10;;
77612;SDS011;66777;52.282;5.960;2023-02-03T17:26:19;13.73;;;2.83;;
77612;SDS011;66777;52.282;5.960;2023-02-03T17:28:45;13.77;;;2.55;;
77612;SDS011;66777;52.282;5.960;2023-02-03T17:31:13;17.65;;;2.47;;
77612;SDS011;66777;52.282;5.960;2023-02-03T17:33:41;19.13;;;3.53;;
77612;SDS011;66777;52.282;5.960;2023-02-03T17:36:09;17.63;;;2.90;;
77612;SDS011;66777;52.282;5.960;2023-02-03T17:38:38;17.77;;;3.10;;
77612;SDS011;66777;52.282;5.960;2023-02-03T17:41:15;14.48;;;2.70;;
77612;SDS011;66777;52.282;5.960;2023-02-03T17:43:42;15.88;;;2.15;;
77612;SDS011;66777;52.282;5.960;2023-02-03T17:46:10;22.23;;;2.72;;
77612;SDS011;66777;52.282;5.960;2023-02-03T17:48:37;17.23;;;2.58;;
77612;SDS011;66777;52.282;5.960;2023-02-03T17:51:13;13.57;;;2.00;;
77612;SDS011;66777;52.282;5.960;2023-02-03T17:53:42;17.67;;;2.60;;